Time;durP1;ratioP1;P1;durP2;ratioP2;P2;SDS_P1;SDS_P2;PMS_P1;PMS_P2;Temp;Humidity;BMP_temperature;BMP_pressure;BME280_temperature;BME280_humidity;BME280_pressure;Samples;Min_cycle;Max_cycle;Signal;HPM_P1;HPM_P2
2021/05/13 00:01:28;;;;;;;0.70;0.60;;;8.60;99.90;;;8.99;100.00;-20926.84;5053378;28;20417;-69
2021/05/13 00:03:56;;;;;;;0.70;0.60;;;8.50;99.90;;;8.97;100.00;-20926.13;5052358;28;20414;-70
2021/05/13 00:06:25;;;;;;;0.70;0.60;;;8.50;99.90;;;8.94;100.00;-20925.59;5053717;28;20444;-68
2021/05/13 00:08:56;;;;;;;0.70;0.60;;;8.50;99.90;;;8.93;100.00;-20925.31;5056524;28;20470;-68
2021/05/13 00:11:31;;;;;;;0.70;0.53;;;8.50;99.90;;;8.88;100.00;-20923.78;5053978;28;20947;-68
2021/05/13 00:14:00;;;;;;;0.70;0.70;;;8.40;99.90;;;8.82;100.00;-20922.25;5053913;28;20416;-69
2021/05/13 00:16:31;;;;;;;0.70;0.50;;;8.30;99.90;;;8.74;100.00;-20920.03;5052499;28;20965;-69
2021/05/13 00:19:04;;;;;;;0.70;0.60;;;8.30;99.90;;;8.67;100.00;-20918.09;5052476;28;20440;-68
2021/05/13 00:21:34;;;;;;;0.70;0.60;;;8.20;99.90;;;8.71;100.00;-20919.22;5051716;28;20459;-69
2021/05/13 00:24:01;;;;;;;0.70;0.50;;;8.30;99.90;;;8.65;100.00;-20917.69;5053160;28;20542;-69
2021/05/13 00:26:39;;;;;;;0.70;0.50;;;8.20;99.90;;;8.63;100.00;-20917.13;5053693;28;20436;-68
2021/05/13 00:29:12;;;;;;;0.70;0.60;;;8.10;99.90;;;8.58;100.00;-20915.75;5051962;28;20436;-69
2021/05/13 00:31:42;;;;;;;0.70;0.57;;;8.10;99.90;;;8.66;100.00;-20917.81;5050877;28;20967;-69
2021/05/13 00:34:10;;;;;;;0.70;0.60;;;8.20;99.90;;;8.70;100.00;-20918.94;5051952;28;20433;-69
2021/05/13 00:36:40;;;;;;;0.70;0.60;;;8.30;99.90;;;8.69;100.00;-20918.78;5052064;28;20427;-69
2021/05/13 00:39:09;;;;;;;0.70;0.60;;;8.30;99.90;;;8.65;100.00;-20917.53;5052659;28;20464;-69
2021/05/13 00:41:38;;;;;;;0.70;0.60;;;8.20;99.90;;;8.62;100.00;-20916.72;5051930;28;20551;-69
2021/05/13 00:44:07;;;;;;;0.70;0.60;;;8.20;99.90;;;8.53;100.00;-20914.34;5052093;28;20494;-69
2021/05/13 00:46:36;;;;;;;0.70;0.60;;;8.00;99.90;;;8.54;100.00;-20914.63;5052240;28;20412;-69
2021/05/13 00:49:11;;;;;;;0.70;0.50;;;8.00;99.90;;;8.46;100.00;-20912.41;5051474;28;20921;-69
2021/05/13 00:51:40;;;;;;;0.80;0.70;;;8.10;99.90;;;8.43;100.00;-20911.59;5053330;28;20943;-69
2021/05/13 00:54:08;;;;;;;0.80;0.80;;;8.00;99.90;;;8.30;100.00;-20907.97;5052330;28;20522;-69
2021/05/13 00:56:37;;;;;;;0.70;0.60;;;7.80;99.90;;;8.24;100.00;-20906.59;5053065;28;20463;-69
2021/05/13 00:59:10;;;;;;;0.70;0.60;;;7.80;99.90;;;8.20;100.00;-20905.47;5052600;28;20877;-69
2021/05/13 01:04:14;;;;;;;0.70;0.57;;;7.70;99.90;;;8.20;100.00;-20905.34;5055937;28;20415;-69
2021/05/13 01:06:43;;;;;;;0.70;0.60;;;7.80;99.90;;;8.36;100.00;-20909.78;5055460;28;20447;-69
2021/05/13 01:09:19;;;;;;;0.70;0.60;;;7.90;99.90;;;8.31;100.00;-20908.25;5054761;28;20533;-69
2021/05/13 01:11:56;;;;;;;0.70;0.60;;;7.80;99.90;;;8.20;100.00;-20905.47;5039017;28;20550;-69
2021/05/13 01:19:34;;;;;;;0.70;0.60;;;7.80;99.90;;;8.30;100.00;-20908.13;5056491;28;20408;-69
2021/05/13 01:22:03;;;;;;;0.70;0.50;;;7.90;99.90;;;8.41;100.00;-20911.03;5087548;28;20844;-68
2021/05/13 01:24:31;;;;;;;0.80;0.70;;;8.00;99.90;;;8.33;100.00;-20908.81;5053819;28;20444;-69
2021/05/13 01:26:59;;;;;;;0.70;0.60;;;7.90;99.90;;;8.15;100.00;-20903.94;5056747;28;20432;-69
2021/05/13 01:29:28;;;;;;;0.70;0.60;;;7.70;99.90;;;8.01;100.00;-20900.19;5038186;28;20512;-69
2021/05/13 01:31:56;;;;;;;0.70;0.60;;;7.50;99.90;;;7.89;100.00;-20896.88;5087557;28;20886;-68
2021/05/13 01:34:25;;;;;;;0.70;0.60;;;7.40;99.90;;;8.18;100.00;-20904.91;5071426;28;20456;-69
2021/05/13 01:36:53;;;;;;;0.70;0.60;;;7.60;99.90;;;8.10;100.00;-20902.69;5087757;28;20436;-68
2021/05/13 01:39:22;;;;;;;0.70;0.60;;;7.60;99.90;;;8.04;100.00;-20901.03;5037372;28;20474;-68
2021/05/13 01:41:50;;;;;;;0.70;0.60;;;7.60;99.90;;;7.96;100.00;-20898.81;5054103;28;20463;-68
2021/05/13 01:44:18;;;;;;;0.70;0.60;;;7.50;99.90;;;7.89;100.00;-20896.88;5054496;28;20444;-69
2021/05/13 01:46:46;;;;;;;0.70;0.60;;;7.40;99.90;;;7.80;100.00;-20894.50;5053707;28;20487;-69
2021/05/13 01:49:19;;;;;;;0.70;0.60;;;7.30;99.90;;;7.80;100.00;-20894.50;5070716;28;20471;-69
2021/05/13 01:51:47;;;;;;;0.70;0.60;;;7.20;99.90;;;7.77;100.00;-20893.53;5070774;28;20509;-68
2021/05/13 01:54:17;;;;;;;0.70;0.60;;;7.20;99.90;;;7.76;100.00;-20893.41;5054101;28;20448;-69
2021/05/13 01:56:47;;;;;;;0.70;0.60;;;7.20;99.90;;;7.73;100.00;-20892.72;5053082;28;21089;-69
2021/05/13 01:59:15;;;;;;;0.70;0.60;;;7.20;99.90;;;7.80;100.00;-20894.50;5054390;28;20789;-70
2021/05/13 02:01:43;;;;;;;0.70;0.60;;;7.20;99.90;;;7.82;100.00;-20894.94;5054448;28;21001;-70
2021/05/13 02:04:11;;;;;;;0.70;0.60;;;7.20;99.90;;;7.79;100.00;-20894.09;5054586;28;20485;-69
2021/05/13 02:06:39;;;;;;;0.70;0.60;;;7.30;99.90;;;7.72;100.00;-20892.44;5054105;28;20434;-69
2021/05/13 02:09:06;;;;;;;1.10;1.00;;;7.20;99.90;;;7.68;100.00;-20891.31;5054101;28;20993;-69
2021/05/13 02:11:34;;;;;;;0.70;0.60;;;7.20;99.90;;;7.59;100.00;-20888.69;5054389;28;20534;-70
2021/05/13 02:14:03;;;;;;;0.70;0.60;;;7.10;99.90;;;7.55;100.00;-20887.72;5053197;28;20431;-70
2021/05/13 02:16:31;;;;;;;0.70;0.60;;;7.00;99.90;;;7.48;100.00;-20885.78;5037446;28;20470;-69
2021/05/13 02:18:59;;;;;;;0.70;0.60;;;6.90;99.90;;;7.44;100.00;-20884.66;5070500;28;20444;-69
2021/05/13 02:21:27;;;;;;;0.70;0.60;;;6.90;99.90;;;7.42;100.00;-20884.09;5052154;28;20482;-68
2021/05/13 02:23:55;;;;;;;0.80;0.70;;;6.90;99.90;;;7.38;100.00;-20883.00;5069963;28;20972;-69
2021/05/13 02:26:22;;;;;;;0.70;0.60;;;6.80;99.90;;;7.38;100.00;-20883.00;5087215;28;20471;-68
2021/05/13 02:28:50;;;;;;;0.70;0.60;;;6.80;99.90;;;7.46;100.00;-20885.34;5053396;28;20437;-68
2021/05/13 02:31:19;;;;;;;0.70;0.60;;;6.80;99.90;;;7.52;100.00;-20886.88;5051495;28;21035;-69
2021/05/13 02:33:48;;;;;;;0.70;0.60;;;6.90;99.90;;;7.52;100.00;-20886.88;5052011;28;20913;-69
2021/05/13 02:36:15;;;;;;;0.73;0.70;;;7.00;99.90;;;7.54;100.00;-20887.44;5055013;28;20415;-69
2021/05/13 02:38:43;;;;;;;0.70;0.60;;;7.10;99.90;;;7.50;100.00;-20886.47;5054500;28;20878;-69
2021/05/13 02:41:11;;;;;;;0.70;0.60;;;7.00;99.90;;;7.45;100.00;-20884.94;5053090;28;20438;-70
2021/05/13 02:43:39;;;;;;;0.70;0.60;;;6.90;99.90;;;7.38;100.00;-20883.13;5052203;28;20479;-69
2021/05/13 02:46:07;;;;;;;0.70;0.60;;;6.80;99.90;;;7.37;100.00;-20882.72;5052231;28;20439;-69
2021/05/13 02:48:35;;;;;;;0.70;0.60;;;6.80;99.90;;;7.38;100.00;-20883.13;5052565;28;20444;-69
2021/05/13 02:51:03;;;;;;;0.70;0.60;;;6.80;99.90;;;7.33;100.00;-20881.59;5052609;28;20415;-69
2021/05/13 02:53:32;;;;;;;2.20;2.10;;;6.80;99.90;;;7.44;100.00;-20884.66;5036429;28;20479;-69
2021/05/13 02:56:00;;;;;;;0.70;0.60;;;6.80;99.90;;;7.47;100.00;-20885.50;5052706;28;20441;-68
2021/05/13 02:58:27;;;;;;;0.70;0.60;;;6.90;99.90;;;7.53;100.00;-20887.16;5054170;28;20535;-68
2021/05/13 03:04:01;;;;;;;0.70;0.60;;;7.00;99.90;;;7.59;100.00;-20888.81;5034207;28;20858;-69
2021/05/13 03:06:29;;;;;;;0.70;0.60;;;7.00;99.90;;;7.61;100.00;-20889.38;5049190;28;20437;-69
2021/05/13 03:08:58;;;;;;;0.70;0.60;;;7.00;99.90;;;7.63;100.00;-20889.78;5033785;28;20437;-69
2021/05/13 03:11:28;;;;;;;0.70;0.60;;;7.10;99.90;;;7.65;100.00;-20890.50;5044397;28;20772;-69
2021/05/13 03:13:58;;;;;;;0.70;0.60;;;7.10;99.90;;;7.64;100.00;-20890.06;5053689;28;20417;-70
2021/05/13 03:16:27;;;;;;;0.70;0.60;;;7.10;99.90;;;7.63;100.00;-20889.94;5052641;28;20949;-69
2021/05/13 03:18:56;;;;;;;0.70;0.60;;;7.10;99.90;;;7.58;100.00;-20888.41;5052349;28;20447;-69
2021/05/13 03:21:34;;;;;;;0.70;0.60;;;7.00;99.90;;;7.57;100.00;-20888.28;5052236;28;20510;-69
2021/05/13 03:24:10;;;;;;;0.70;0.60;;;7.00;99.90;;;7.50;100.00;-20886.31;5052578;28;20465;-69
2021/05/13 03:29:06;;;;;;;0.70;0.60;;;6.90;99.90;;;7.43;100.00;-20884.38;5049977;28;20812;-69
2021/05/13 03:31:33;;;;;;;0.70;0.60;;;6.80;99.90;;;7.36;100.00;-20882.56;5051677;28;20443;-69
2021/05/13 03:34:02;;;;;;;0.70;0.60;;;6.80;99.90;;;7.37;100.00;-20882.72;5053368;28;20932;-71
2021/05/13 03:36:32;;;;;;;0.70;0.60;;;6.80;99.90;;;7.34;100.00;-20881.88;5051256;28;20943;-69
2021/05/13 03:38:59;;;;;;;0.70;0.60;;;6.70;99.90;;;7.33;100.00;-20881.59;5051813;28;20455;-69
2021/05/13 03:41:27;;;;;;;0.70;0.60;;;6.70;99.90;;;7.31;100.00;-20881.19;5052745;28;20454;-69
2021/05/13 03:43:55;;;;;;;0.70;0.60;;;6.70;99.90;;;7.28;100.00;-20880.34;5051335;28;20432;-70
2021/05/13 03:46:22;;;;;;;0.70;0.53;;;6.70;99.90;;;7.30;100.00;-20880.78;5052292;28;20419;-69
2021/05/13 03:48:52;;;;;;;0.70;0.60;;;6.70;99.90;;;7.28;100.00;-20880.22;5052322;28;20423;-69
2021/05/13 03:51:19;;;;;;;0.70;0.60;;;6.70;99.90;;;7.33;100.00;-20881.59;5052233;28;20452;-70
2021/05/13 03:53:48;;;;;;;0.70;0.57;;;6.70;99.90;;;7.42;100.00;-20884.09;5052176;28;20466;-69
2021/05/13 03:56:15;;;;;;;0.70;0.60;;;6.70;99.90;;;7.50;100.00;-20886.31;5052171;28;20754;-69
2021/05/13 03:58:52;;;;;;;0.70;0.60;;;6.80;99.90;;;7.59;100.00;-20888.81;5053262;28;20419;-69
2021/05/13 04:03:59;;;;;;;0.70;0.60;;;7.20;99.90;;;7.86;100.00;-20896.03;5053148;28;20412;-69
2021/05/13 04:06:27;;;;;;;0.70;0.60;;;7.30;99.90;;;7.95;100.00;-20898.53;5052983;28;20419;-69
2021/05/13 04:08:55;;;;;;;0.70;0.60;;;7.40;99.90;;;7.94;100.00;-20898.25;5083483;28;20980;-69
2021/05/13 04:11:23;;;;;;;0.70;0.50;;;7.30;99.90;;;7.86;100.00;-20896.19;5051933;28;20991;-69
2021/05/13 04:13:52;;;;;;;0.70;0.60;;;7.20;99.90;;;7.84;100.00;-20895.47;5051112;28;20551;-69
2021/05/13 04:16:27;;;;;;;0.70;0.60;;;7.20;99.90;;;7.84;100.00;-20895.47;5068492;28;20431;-69
2021/05/13 04:18:54;;;;;;;0.70;0.60;;;7.20;99.90;;;7.91;100.00;-20897.44;5051909;28;20408;-69
2021/05/13 04:21:23;;;;;;;0.70;0.60;;;7.30;99.90;;;8.08;100.00;-20902.16;5051377;28;20444;-69
2021/05/13 04:23:50;;;;;;;0.70;0.60;;;7.40;99.90;;;8.18;100.00;-20904.91;5050814;28;20907;-72
2021/05/13 04:26:22;;;;;;;0.70;0.60;;;7.50;99.90;;;8.28;100.00;-20907.41;5049552;28;20460;-69
2021/05/13 04:28:50;;;;;;;1.30;1.20;;;7.60;99.90;;;8.30;100.00;-20907.97;5031954;28;20417;-70
2021/05/13 04:31:18;;;;;;;0.70;0.60;;;7.60;99.90;;;8.24;100.00;-20906.44;5042356;28;20428;-71
2021/05/13 04:33:46;;;;;;;0.70;0.50;;;7.60;99.90;;;8.20;100.00;-20905.47;5084150;28;20467;-69
2021/05/13 04:36:14;;;;;;;0.70;0.60;;;7.50;99.90;;;8.25;100.00;-20906.72;5053233;28;20409;-69
2021/05/13 04:38:42;;;;;;;0.70;0.50;;;7.60;99.90;;;8.53;100.00;-20914.34;5071968;28;20463;-69
2021/05/13 04:41:10;;;;;;;0.70;0.60;;;7.80;99.90;;;8.50;100.00;-20913.53;5088256;28;20455;-71
2021/05/13 04:43:39;;;;;;;0.70;0.60;;;7.90;99.90;;;8.50;100.00;-20913.53;5056415;28;20942;-71
2021/05/13 04:46:08;;;;;;;0.70;0.60;;;7.80;99.90;;;8.60;100.00;-20916.16;5055598;28;20416;-70
2021/05/13 04:51:32;;;;;;;0.70;0.60;;;7.90;99.90;;;8.70;100.00;-20919.06;5055421;28;20446;-70
2021/05/13 04:54:00;;;;;;;0.70;0.60;;;8.00;99.90;;;8.83;100.00;-20922.41;5054788;28;20492;-70
2021/05/13 04:56:29;;;;;;;0.70;0.60;;;8.20;99.90;;;8.88;100.00;-20923.78;5038813;28;20436;-70
2021/05/13 04:58:58;;;;;;;0.70;0.57;;;8.20;99.90;;;8.91;100.00;-20924.75;5054437;28;20443;-70
2021/05/13 05:01:26;;;;;;;0.70;0.60;;;8.20;99.90;;;8.95;100.00;-20925.72;5054649;28;20501;-70
2021/05/13 05:03:54;;;;;;;0.70;0.60;;;8.20;99.90;;;9.14;100.00;-20931.00;5071048;28;20807;-70
2021/05/13 05:06:22;;;;;;;0.70;0.60;;;8.40;99.90;;;9.17;100.00;-20931.81;5054051;28;20445;-70
2021/05/13 05:08:50;;;;;;;0.70;0.60;;;8.40;99.90;;;9.28;100.00;-20934.72;5055200;28;20451;-70
2021/05/13 05:11:20;;;;;;;0.70;0.60;;;8.50;99.90;;;9.33;100.00;-20936.13;5053992;28;20848;-70
2021/05/13 05:13:49;;;;;;;0.70;0.50;;;8.60;99.90;;;9.50;100.00;-20940.53;5038158;28;20475;-70
2021/05/13 05:16:18;;;;;;;0.70;0.60;;;8.70;99.90;;;9.59;100.00;-20943.19;5086791;28;20559;-70
2021/05/13 05:18:46;;;;;;;0.70;0.60;;;8.80;99.90;;;9.63;100.00;-20944.16;5054528;28;20413;-70
2021/05/13 05:21:14;;;;;;;0.77;0.70;;;8.80;99.90;;;9.77;100.00;-20948.03;5054369;28;20456;-70
2021/05/13 05:23:42;;;;;;;0.70;0.60;;;8.90;99.90;;;9.77;100.00;-20947.88;5052462;28;20791;-70
2021/05/13 05:26:09;;;;;;;0.70;0.60;;;8.90;99.90;;;9.90;100.00;-20951.63;5064571;28;20453;-70
2021/05/13 05:28:37;;;;;;;0.70;0.60;;;9.00;99.90;;;9.88;100.00;-20950.94;5045792;28;20420;-70
2021/05/13 05:31:04;;;;;;;0.70;0.60;;;9.00;99.90;;;9.91;100.00;-20951.91;5044439;28;21159;-69
2021/05/13 05:33:33;;;;;;;0.70;0.60;;;9.10;99.90;;;9.95;100.00;-20952.75;5049470;28;20477;-70
2021/05/13 05:36:00;;;;;;;0.70;0.60;;;9.10;99.90;;;9.93;100.00;-20952.31;5044772;28;20521;-70
2021/05/13 05:38:28;;;;;;;0.70;0.60;;;9.10;99.90;;;10.05;100.00;-20955.50;5054811;28;20966;-70
2021/05/13 05:40:56;;;;;;;0.70;0.50;;;9.30;99.90;;;10.12;100.00;-20957.56;5037445;28;20442;-70
2021/05/13 05:43:23;;;;;;;0.70;0.50;;;9.30;99.90;;;10.22;100.00;-20960.06;5054901;28;20439;-69
2021/05/13 05:45:51;;;;;;;0.70;0.60;;;9.40;99.90;;;10.17;100.00;-20958.81;5055505;28;20471;-70
2021/05/13 05:48:18;;;;;;;0.70;0.60;;;9.50;99.90;;;10.38;100.00;-20964.50;5052543;28;20429;-70
2021/05/13 05:50:47;;;;;;;0.70;0.50;;;9.60;99.90;;;10.43;100.00;-20965.88;5053604;28;20502;-70
2021/05/13 05:53:14;;;;;;;0.70;0.60;;;9.70;99.90;;;10.66;100.00;-20971.97;5053782;28;20482;-71
2021/05/13 05:55:43;;;;;;;0.70;0.60;;;9.80;99.90;;;10.71;100.00;-20973.34;5054505;28;20794;-70
2021/05/13 05:58:10;;;;;;;0.70;0.57;;;10.00;99.90;;;10.83;100.00;-20976.81;5054413;28;20452;-70
2021/05/13 06:00:38;;;;;;;0.70;0.60;;;10.10;99.90;;;10.94;100.00;-20979.59;5053526;28;20451;-69
2021/05/13 06:03:05;;;;;;;0.70;0.60;;;10.20;99.90;;;10.96;100.00;-20980.28;5054582;28;20435;-71
2021/05/13 06:05:34;;;;;;;0.90;0.90;;;10.30;99.90;;;11.24;100.00;-20987.75;5052145;28;20800;-70
2021/05/13 06:08:04;;;;;;;0.70;0.67;;;10.40;99.90;;;11.30;100.00;-20989.41;5036272;28;20470;-69
2021/05/13 06:10:33;;;;;;;0.70;0.60;;;10.50;99.90;;;11.45;100.00;-20993.41;5055177;28;20503;-69
2021/05/13 06:13:07;;;;;;;0.70;0.60;;;10.70;99.90;;;11.51;100.00;-20995.19;5053886;28;20455;-68
2021/05/13 06:15:37;;;;;;;0.70;0.60;;;10.80;99.90;;;11.65;100.00;-20998.94;5087240;28;20558;-71
2021/05/13 06:18:06;;;;;;;0.70;0.60;;;10.90;99.90;;;11.70;100.00;-21000.16;5053491;28;20813;-71
2021/05/13 06:20:35;;;;;;;0.70;0.60;;;11.00;99.90;;;11.72;100.00;-21000.88;5053551;28;20935;-71
2021/05/13 06:23:04;;;;;;;0.70;0.60;;;11.10;99.90;;;11.88;100.00;-21005.00;5051375;28;20479;-69
2021/05/13 06:25:32;;;;;;;0.70;0.60;;;11.20;99.90;;;12.09;100.00;-21010.81;5052448;28;20478;-68
2021/05/13 06:27:59;;;;;;;0.70;0.60;;;11.40;99.90;;;12.03;100.00;-21009.28;5052757;28;20439;-69
2021/05/13 06:30:27;;;;;;;0.70;0.60;;;11.40;99.90;;;12.36;100.00;-21018.13;5051757;28;20440;-69
2021/05/13 06:32:55;;;;;;;0.70;0.60;;;11.50;99.90;;;12.49;100.00;-21021.72;5052250;28;20516;-69
2021/05/13 06:35:22;;;;;;;0.70;0.60;;;11.60;99.90;;;12.58;100.00;-21024.06;5054101;28;20923;-71
2021/05/13 06:37:50;;;;;;;0.70;0.70;;;11.80;99.90;;;12.56;100.00;-21023.66;5052765;28;21048;-68
2021/05/13 06:40:19;;;;;;;0.70;0.60;;;11.90;99.90;;;12.72;100.00;-21027.94;5054676;28;20450;-69
2021/05/13 06:42:47;;;;;;;0.70;0.60;;;12.00;99.90;;;12.74;100.00;-21028.34;5054424;28;20838;-69
2021/05/13 06:45:15;;;;;;;0.70;0.60;;;12.10;99.90;;;12.88;100.00;-21032.19;5052438;28;20538;-68
2021/05/13 06:47:43;;;;;;;0.70;0.70;;;12.20;99.90;;;13.04;100.00;-21036.63;5051549;28;20489;-68
2021/05/13 06:50:13;;;;;;;0.80;0.70;;;12.40;99.90;;;13.19;100.00;-21040.63;5053674;28;20438;-68
2021/05/13 06:52:41;;;;;;;0.70;0.60;;;12.20;99.90;;;13.11;100.00;-21038.41;5051803;28;20845;-70
2021/05/13 06:55:10;;;;;;;0.70;0.60;;;12.30;99.90;;;13.28;100.00;-21042.97;5046616;28;20416;-69
2021/05/13 06:57:39;;;;;;;0.70;0.60;;;12.60;99.90;;;13.43;100.00;-21046.97;5036227;28;20793;-68
2021/05/13 07:00:08;;;;;;;0.70;0.60;;;12.80;99.90;;;13.72;100.00;-21054.81;5047071;28;20487;-70
2021/05/13 07:02:36;;;;;;;0.70;0.60;;;13.00;99.90;;;13.86;100.00;-21058.66;5069360;28;20486;-70
2021/05/13 07:05:05;;;;;;;0.70;0.70;;;13.30;99.90;;;13.94;100.00;-21060.88;5054045;28;20501;-70
2021/05/13 07:07:35;;;;;;;0.70;0.67;;;13.40;99.90;;;14.01;100.00;-21062.81;5052497;28;20436;-69
2021/05/13 07:10:04;;;;;;;0.70;0.60;;;13.50;99.90;;;13.93;100.00;-21060.59;5085376;28;20448;-70
2021/05/13 07:12:31;;;;;;;0.70;0.60;;;13.40;99.90;;;14.28;100.00;-21069.97;5047269;28;20418;-70
2021/05/13 07:15:02;;;;;;;0.70;0.60;;;13.60;99.90;;;14.53;100.00;-21076.72;5044286;28;20522;-70
2021/05/13 07:17:30;;;;;;;0.70;0.60;;;13.70;99.90;;;14.40;100.00;-21073.28;5053063;28;20477;-70
2021/05/13 07:19:58;;;;;;;0.70;0.60;;;13.80;99.90;;;14.76;100.00;-21082.91;5051903;28;20476;-70
2021/05/13 07:22:26;;;;;;;0.70;0.60;;;14.20;99.90;;;15.03;100.00;-21090.06;5053883;28;20424;-70
2021/05/13 07:24:53;;;;;;;0.70;0.60;;;14.20;99.90;;;15.11;100.00;-21092.25;5035728;28;20454;-71
2021/05/13 07:27:21;;;;;;;0.70;0.70;;;14.60;99.90;;;15.49;100.00;-21102.56;5051490;28;20451;-70
2021/05/13 07:29:49;;;;;;;0.70;0.67;;;14.80;99.90;;;15.58;100.00;-21104.91;5052968;28;21030;-70
2021/05/13 07:32:18;;;;;;;0.80;0.70;;;15.00;99.90;;;15.72;100.00;-21108.75;5051524;28;20999;-70
2021/05/13 07:34:45;;;;;;;0.80;0.70;;;15.20;99.90;;;15.66;100.00;-21107.25;5040481;28;20475;-71
2021/05/13 07:37:14;;;;;;;0.70;0.60;;;15.20;99.90;;;15.98;100.00;-21115.63;5033443;28;20432;-71
2021/05/13 07:39:41;;;;;;;0.70;0.60;;;15.20;99.90;;;16.11;100.00;-21119.22;5052463;28;20489;-71
2021/05/13 07:42:09;;;;;;;0.70;0.70;;;15.40;99.90;;;16.40;100.00;-21127.03;5083454;28;20475;-71
2021/05/13 07:44:36;;;;;;;0.70;0.70;;;15.90;99.90;;;16.88;100.00;-21140.06;5051634;28;20441;-71
2021/05/13 07:47:04;;;;;;;0.70;0.60;;;16.10;99.90;;;17.09;100.00;-21145.56;5051825;28;20731;-71
2021/05/13 07:49:34;;;;;;;0.70;0.60;;;16.40;99.90;;;17.60;100.00;-21159.41;5050808;28;20545;-70
2021/05/13 07:52:02;;;;;;;0.70;0.60;;;16.50;99.90;;;17.74;100.00;-21162.97;5052415;28;20451;-71
2021/05/13 07:54:30;;;;;;;0.80;0.70;;;17.00;99.90;;;17.91;100.00;-21167.50;5052733;28;20490;-71
2021/05/13 07:56:58;;;;;;;0.80;0.60;;;16.70;99.90;;;18.29;100.00;-21177.91;5038082;28;20440;-71
2021/05/13 07:59:26;;;;;;;0.70;0.60;;;16.90;99.90;;;18.78;100.00;-21190.94;5050662;28;20970;-71
2021/05/13 08:01:54;;;;;;;0.70;0.60;;;16.90;99.90;;;18.59;100.00;-21186.00;5084704;28;20451;-71
2021/05/13 08:04:22;;;;;;;0.80;0.70;;;16.90;99.90;;;18.52;100.00;-21183.94;5053057;28;20474;-69
2021/05/13 08:06:50;;;;;;;0.80;0.70;;;17.30;99.90;;;18.97;100.00;-21196.00;5051340;28;20434;-69
2021/05/13 08:09:18;;;;;;;0.70;0.60;;;17.40;99.90;;;18.90;100.00;-21194.22;5051920;28;20559;-71
2021/05/13 08:11:46;;;;;;;0.80;0.70;;;17.40;99.90;;;18.89;100.00;-21193.81;5054118;28;20970;-71
2021/05/13 08:14:14;;;;;;;0.70;0.60;;;17.80;99.90;;;19.18;100.00;-21201.72;5057472;28;20971;-71
2021/05/13 08:16:41;;;;;;;0.80;0.70;;;18.10;99.90;;;19.54;100.00;-21211.31;5054050;28;20534;-72
2021/05/13 08:19:09;;;;;;;0.80;0.70;;;18.00;99.90;;;19.60;100.00;-21212.94;5056973;28;20525;-71
2021/05/13 08:21:37;;;;;;;0.80;0.70;;;18.40;99.90;;;19.72;100.00;-21216.25;5056013;28;20779;-72
2021/05/13 08:24:06;;;;;;;0.70;0.60;;;18.50;99.90;;;19.96;100.00;-21222.53;5055282;28;20428;-72
2021/05/13 08:26:34;;;;;;;0.70;0.60;;;18.50;99.90;;;20.19;100.00;-21228.66;5055948;28;20443;-71
2021/05/13 08:29:02;;;;;;;0.70;0.60;;;18.40;99.90;;;20.33;100.00;-21232.34;5056861;28;20515;-71
2021/05/13 08:31:30;;;;;;;0.70;0.60;;;18.70;99.90;;;20.82;100.00;-21245.47;5053292;28;20446;-71
2021/05/13 08:33:58;;;;;;;0.70;0.60;;;18.30;99.90;;;20.81;100.00;-21245.19;5055507;28;20570;-71
2021/05/13 08:36:25;;;;;;;0.70;0.50;;;18.90;99.90;;;20.75;100.00;-21243.81;5052842;28;20485;-71
2021/05/13 08:38:54;;;;;;;0.70;0.50;;;19.10;99.90;;;21.51;100.00;-21264.03;5039781;28;20452;-71
2021/05/13 08:41:22;;;;;;;0.73;0.60;;;19.40;99.90;;;21.75;100.00;-21270.44;5056704;28;20415;-71
2021/05/13 08:43:51;;;;;;;0.70;0.50;;;19.70;99.90;;;22.54;100.00;-21291.53;5055396;28;20428;-72
2021/05/13 08:46:20;;;;;;;0.70;0.50;;;20.10;99.90;;;21.68;100.00;-21268.53;5054140;28;20854;-71
2021/05/13 08:48:51;;;;;;;0.70;0.50;;;20.10;99.90;;;22.89;100.00;-21300.94;5087926;28;20447;-72
2021/05/13 08:51:19;;;;;;;0.70;0.50;;;20.10;99.90;;;22.34;100.00;-21286.22;5055380;28;20404;-71
2021/05/13 08:53:49;;;;;;;0.70;0.50;;;20.40;99.90;;;23.06;100.00;-21305.28;5056247;28;20463;-71
2021/05/13 08:56:17;;;;;;;0.70;0.50;;;20.70;99.90;;;23.49;100.00;-21316.84;5056395;28;20415;-73
2021/05/13 08:58:45;;;;;;;0.70;0.50;;;20.60;99.90;;;23.35;100.00;-21313.03;5038052;28;20444;-71
2021/05/13 09:01:15;;;;;;;0.70;0.50;;;20.80;99.90;;;22.96;100.00;-21302.72;5054572;28;20432;-71
2021/05/13 09:03:46;;;;;;;0.70;0.50;;;20.50;99.90;;;22.69;100.00;-21295.34;5054997;28;20472;-71
2021/05/13 09:06:23;;;;;;;0.70;0.50;;;20.40;94.90;;;23.57;100.00;-21319.03;5054991;28;20419;-72
2021/05/13 09:08:52;;;;;;;0.70;0.50;;;21.20;92.80;;;24.20;100.00;-21335.59;5054832;28;20455;-72
2021/05/13 09:11:19;;;;;;;0.70;0.50;;;21.10;84.50;;;23.31;100.00;-21311.97;5054816;28;20481;-72
2021/05/13 09:14:01;;;;;;;0.70;0.63;;;21.00;78.90;;;23.98;100.00;-21329.91;5056034;28;20534;-71
2021/05/13 09:16:31;;;;;;;0.70;0.50;;;21.40;68.30;;;25.63;100.00;-21373.59;5054629;28;20440;-71
2021/05/13 09:18:59;;;;;;;0.70;0.50;;;21.20;65.00;;;25.56;100.00;-21371.69;5085262;28;20480;-72
2021/05/13 09:21:26;;;;;;;0.70;0.50;;;21.30;62.10;;;25.43;100.00;-21368.44;5088283;28;20462;-71
2021/05/13 09:23:54;;;;;;;0.70;0.50;;;21.60;65.20;;;25.62;100.00;-21373.31;5069578;28;20456;-71
2021/05/13 09:26:22;;;;;;;0.70;0.50;;;22.40;60.00;;;25.72;100.00;-21376.03;5086778;28;20459;-72
2021/05/13 09:29:12;;;;;;;0.70;0.50;;;22.50;49.20;;;25.15;100.00;-21360.84;5055631;28;20486;-71
2021/05/13 09:31:42;;;;;;;0.80;0.70;;;22.00;43.50;;;24.52;100.00;-21344.16;5037863;28;20435;-72
2021/05/13 09:34:11;;;;;;;0.70;0.50;;;22.20;44.20;;;26.78;100.00;-21404.06;5054332;28;20467;-71
2021/05/13 09:36:39;;;;;;;0.80;0.60;;;21.80;36.40;;;25.95;100.00;-21382.13;5054052;28;20436;-71
2021/05/13 09:39:23;;;;;;;0.70;0.50;;;22.20;37.50;;;25.58;100.00;-21372.25;5055233;28;20861;-70
2021/05/13 09:41:58;;;;;;;0.70;0.50;;;23.00;36.60;;;25.39;100.00;-21367.34;5054184;28;20436;-70
2021/05/13 09:44:33;;;;;;;0.70;0.50;;;22.80;31.20;;;26.34;100.00;-21392.56;5053792;28;20404;-71
2021/05/13 09:47:20;;;;;;;1.00;0.80;;;23.10;29.70;;;26.38;98.72;-21393.63;5054091;28;20912;-72
2021/05/13 09:50:05;;;;;;;0.70;0.50;;;23.10;25.40;;;26.29;90.25;-21391.06;5054150;28;20448;-72
2021/05/13 09:52:52;;;;;;;0.70;0.50;;;22.90;23.00;;;26.40;100.00;-21394.03;5054033;28;20526;-72
2021/05/13 09:55:25;;;;;;;0.70;0.40;;;23.20;27.60;;;26.65;95.78;-21400.69;5054303;28;20501;-71
2021/05/13 09:58:00;;;;;;;0.70;0.50;;;22.60;23.80;;;28.69;87.98;-21454.59;5053657;28;20432;-74
2021/05/13 10:00:44;;;;;;;0.70;0.50;;;22.50;24.70;;;29.29;81.33;-21470.63;5053421;28;20442;-71
2021/05/13 10:03:15;;;;;;;0.70;0.50;;;22.10;25.00;;;26.88;85.89;-21406.91;5053340;28;20404;-72
2021/05/13 10:05:47;;;;;;;0.70;0.50;;;22.80;26.00;;;28.43;85.81;-21447.84;5054608;28;20797;-71
2021/05/13 10:08:16;;;;;;;0.70;0.50;;;23.40;22.70;;;29.45;74.18;-21474.78;5053326;28;20471;-71
2021/05/13 10:10:45;;;;;;;0.70;0.50;;;22.00;21.00;;;26.93;80.56;-21408.25;5053227;28;20538;-72
2021/05/13 10:13:17;;;;;;;0.70;0.50;;;22.70;21.70;;;28.31;83.11;-21444.72;5055040;28;20428;-71
2021/05/13 10:15:48;;;;;;;0.70;0.50;;;22.90;22.30;;;29.55;76.62;-21477.34;5053547;28;20459;-71
2021/05/13 10:18:25;;;;;;;0.70;0.50;;;22.50;21.40;;;28.23;78.00;-21442.44;5053840;28;20444;-72
2021/05/13 10:21:02;;;;;;;0.70;0.50;;;22.60;20.80;;;26.18;85.57;-21388.34;5053523;28;20969;-72
2021/05/13 10:23:31;;;;;;;0.70;0.50;;;22.90;22.70;;;26.12;87.19;-21386.59;5054685;28;20874;-71
2021/05/13 10:25:58;;;;;;;0.70;0.50;;;23.90;20.60;;;27.49;87.00;-21422.84;5036838;28;20451;-71
2021/05/13 10:28:29;;;;;;;0.70;0.50;;;24.40;19.70;;;26.69;85.36;-21401.75;5055279;28;20420;-72
2021/05/13 10:31:06;;;;;;;0.70;0.50;;;23.60;19.10;;;24.67;89.87;-21348.09;5086402;28;20459;-72
2021/05/13 10:33:51;;;;;;;0.70;0.50;;;22.40;17.50;;;24.37;91.82;-21340.22;5054006;28;20428;-72
2021/05/13 10:36:22;;;;;;;0.70;0.50;;;21.30;18.30;;;24.27;86.05;-21337.63;5053412;28;20462;-75
2021/05/13 10:38:52;;;;;;;0.70;0.50;;;20.20;19.00;;;23.44;100.00;-21315.34;5054319;28;20845;-72
2021/05/13 10:41:41;;;;;;;0.70;0.50;;;20.40;23.80;;;22.76;100.00;-21297.25;5054181;28;20740;-73